Terminal Aerodrome Forecast
Issued by NWS

Home | Current Version | Previous Version | Text Only | Print | Product List | Glossary On
Versions: 1 2 3 4 5 6 7 8 9 10 11 12 13 14
000
FTUS46 KSEW 180525
TAFPAE
TAF
KPAE 180525Z 1806/1906 13012KT 2SM -RA BR OVC003
     FM180800 15015G23KT 4SM -RA BR SCT005 OVC015
      TEMPO 1808/1810 2SM -RA BR OVC005
     FM181800 18018G28KT 5SM -SHRA BR BKN020 OVC040
     FM190300 17014KT P6SM -SHRA BKN015 OVC030=

USA.gov is the U.S. government's official web portal to all federal, state and local government web resources and services.